createdAt,value
2019-03-20T00:00:10.281Z,9.50
2019-03-20T00:02:38.848Z,9.43
2019-03-20T00:05:08.026Z,9.50
2019-03-20T00:07:37.624Z,10.13
2019-03-20T00:10:08.290Z,9.35
2019-03-20T00:12:36.863Z,9.30
2019-03-20T00:15:08.769Z,8.70
2019-03-20T00:17:37.325Z,8.40
2019-03-20T00:20:09.437Z,8.53
2019-03-20T00:22:38.084Z,9.00
2019-03-20T00:25:08.476Z,8.40
2019-03-20T00:27:37.189Z,8.67
2019-03-20T00:30:11.477Z,8.07
2019-03-20T00:32:40.038Z,8.20
2019-03-20T00:35:08.743Z,8.50
2019-03-20T00:37:37.306Z,7.60
2019-03-20T00:40:26.705Z,9.33
2019-03-20T00:42:55.292Z,8.97
2019-03-20T00:45:23.830Z,8.65
2019-03-20T00:47:52.401Z,8.75
2019-03-20T00:50:21.510Z,9.23
2019-03-20T00:52:50.136Z,8.35
2019-03-20T00:55:20.292Z,8.43
2019-03-20T00:57:49.001Z,9.07
2019-03-20T01:00:25.569Z,10.10
2019-03-20T01:02:54.190Z,10.20
2019-03-20T01:05:22.751Z,9.93
2019-03-20T01:07:51.387Z,9.28
2019-03-20T01:10:24.778Z,10.82
2019-03-20T01:12:53.630Z,9.37
2019-03-20T01:15:22.375Z,9.65
2019-03-20T01:17:50.965Z,9.30
2019-03-20T01:20:21.450Z,9.40
2019-03-20T01:22:50.396Z,10.00
2019-03-20T01:25:19.544Z,9.27
2019-03-20T01:27:48.190Z,10.05
2019-03-20T01:30:33.941Z,9.40
2019-03-20T01:33:13.380Z,9.70
2019-03-20T01:35:43.103Z,9.90
2019-03-20T01:38:11.756Z,9.63
2019-03-20T01:40:40.947Z,9.77
2019-03-20T01:43:09.745Z,9.73
2019-03-20T01:45:38.357Z,11.33
2019-03-20T01:48:07.071Z,10.08
2019-03-20T01:50:35.635Z,9.98
2019-03-20T01:53:05.757Z,10.15
2019-03-20T01:55:34.321Z,9.30
2019-03-20T01:58:02.899Z,8.50
2019-03-20T02:00:31.689Z,8.83
2019-03-20T02:03:00.279Z,8.70
2019-03-20T02:05:35.649Z,9.10
2019-03-20T02:07:59.034Z,8.58
2019-03-20T02:10:27.592Z,9.47
2019-03-20T02:12:58.579Z,9.65
2019-03-20T02:15:37.662Z,9.20
2019-03-20T02:17:56.712Z,9.40
2019-03-20T02:20:25.253Z,9.20
2019-03-20T02:22:53.749Z,9.70
2019-03-20T02:25:22.233Z,9.40
2019-03-20T02:27:50.838Z,10.05
2019-03-20T02:30:21.290Z,10.10
2019-03-20T02:32:49.853Z,9.90
2019-03-20T02:35:18.397Z,9.77
2019-03-20T02:37:46.999Z,9.80
2019-03-20T02:40:16.050Z,10.20
2019-03-20T02:42:44.800Z,10.07
2019-03-20T02:45:17.999Z,10.20
2019-03-20T02:47:46.557Z,10.18
2019-03-20T02:50:15.468Z,9.83
2019-03-20T02:52:44.191Z,10.20
2019-03-20T02:55:13.283Z,10.38
2019-03-20T02:57:41.855Z,10.10
2019-03-20T03:00:20.985Z,10.70
2019-03-20T03:02:49.900Z,10.37
2019-03-20T03:05:18.787Z,9.95
2019-03-20T03:07:47.473Z,9.90
2019-03-20T03:10:17.972Z,10.43
2019-03-20T03:12:46.576Z,10.80
2019-03-20T03:15:16.238Z,10.90
2019-03-20T03:17:44.975Z,10.80
2019-03-20T03:20:15.419Z,11.70
2019-03-20T03:22:44.255Z,11.70
2019-03-20T03:25:15.927Z,12.37
2019-03-20T03:27:45.398Z,12.20
2019-03-20T03:30:17.717Z,10.88
2019-03-20T03:32:46.764Z,11.17
2019-03-20T03:35:18.693Z,10.70
2019-03-20T03:37:45.949Z,12.10
2019-03-20T03:40:16.368Z,11.30
2019-03-20T03:42:45.048Z,10.50
2019-03-20T03:45:15.196Z,11.20
2019-03-20T03:47:43.742Z,11.00
2019-03-20T03:50:12.960Z,11.30
2019-03-20T03:52:41.524Z,11.97
2019-03-20T03:55:16.404Z,11.28
2019-03-20T03:57:45.315Z,10.90
2019-03-20T04:00:18.061Z,11.63
2019-03-20T04:02:47.042Z,12.10
2019-03-20T04:05:15.764Z,11.63
2019-03-20T04:07:44.604Z,11.80
2019-03-20T04:10:17.339Z,12.45
2019-03-20T04:12:46.133Z,11.83
2019-03-20T04:15:16.405Z,11.73
2019-03-20T04:17:44.986Z,11.52
2019-03-20T04:20:16.679Z,11.87
2019-03-20T04:22:45.175Z,11.55
2019-03-20T04:25:14.112Z,11.80
2019-03-20T04:27:43.081Z,11.03
2019-03-20T04:30:16.582Z,10.37
2019-03-20T04:32:45.146Z,11.30
2019-03-20T04:35:14.373Z,11.18
2019-03-20T04:37:43.073Z,11.47
2019-03-20T04:40:16.822Z,10.97
2019-03-20T04:42:45.438Z,11.80
2019-03-20T04:45:15.942Z,11.20
2019-03-20T04:47:44.822Z,11.00
2019-03-20T04:50:17.921Z,11.23
2019-03-20T04:52:46.534Z,12.70
2019-03-20T04:55:15.119Z,12.40
2019-03-20T04:57:45.622Z,12.70
2019-03-20T05:00:21.126Z,50.70
2019-03-20T05:02:49.674Z,15.38
2019-03-20T05:05:18.311Z,17.32
2019-03-20T05:07:46.896Z,13.13
2019-03-20T05:10:19.267Z,16.97
2019-03-20T05:12:47.825Z,12.50
2019-03-20T05:15:16.470Z,11.83
2019-03-20T05:17:45.005Z,13.08
2019-03-20T05:20:19.261Z,13.50
2019-03-20T05:22:47.845Z,12.40
2019-03-20T05:25:16.419Z,13.17
2019-03-20T05:27:44.997Z,12.68
2019-03-20T05:30:16.975Z,12.63
2019-03-20T05:32:45.902Z,14.40
2019-03-20T05:35:14.393Z,15.60
2019-03-20T05:37:42.884Z,14.83
2019-03-20T05:40:13.775Z,13.97
2019-03-20T05:42:42.422Z,14.65
2019-03-20T05:45:20.061Z,12.75
2019-03-20T05:47:48.873Z,12.65
2019-03-20T05:50:18.095Z,11.10
2019-03-20T05:52:46.637Z,11.30
2019-03-20T05:55:15.202Z,11.35
2019-03-20T05:57:43.763Z,11.30
2019-03-20T06:00:16.081Z,11.22
2019-03-20T06:02:44.568Z,11.60
2019-03-20T06:05:13.186Z,13.00
2019-03-20T06:07:41.679Z,11.90
2019-03-20T06:10:16.145Z,11.70
2019-03-20T06:12:44.696Z,12.05
2019-03-20T06:15:14.180Z,11.60
2019-03-20T06:17:42.992Z,11.28
2019-03-20T06:20:15.121Z,11.77
2019-03-20T06:22:43.694Z,11.70
2019-03-20T06:25:14.339Z,12.53
2019-03-20T06:27:43.047Z,11.40
2019-03-20T06:30:19.774Z,12.00
2019-03-20T06:32:48.268Z,10.90
2019-03-20T06:35:16.877Z,10.90
2019-03-20T06:37:45.449Z,10.50
2019-03-20T06:40:15.332Z,10.70
2019-03-20T06:42:43.965Z,10.33
2019-03-20T06:45:17.064Z,10.65
2019-03-20T06:47:45.620Z,16.23
2019-03-20T06:50:19.717Z,11.40
2019-03-20T06:52:48.215Z,11.83
2019-03-20T06:55:16.757Z,11.00
2019-03-20T06:57:45.321Z,11.88
2019-03-20T07:00:33.277Z,14.13
2019-03-20T07:03:04.369Z,12.57
2019-03-20T07:05:42.048Z,12.00
2019-03-20T07:08:10.487Z,12.67
2019-03-20T07:10:47.826Z,11.83
2019-03-20T07:13:16.397Z,12.90
2019-03-20T07:15:44.869Z,12.23
2019-03-20T07:18:13.446Z,16.60
2019-03-20T07:20:41.989Z,12.93
2019-03-20T07:23:10.568Z,11.93
2019-03-20T07:25:39.113Z,12.80
2019-03-20T07:28:07.649Z,13.70
2019-03-20T07:30:36.201Z,13.58
2019-03-20T07:33:04.769Z,12.80
2019-03-20T07:35:33.321Z,12.57
2019-03-20T07:38:02.369Z,12.37
2019-03-20T07:40:30.854Z,12.85
2019-03-20T07:43:08.142Z,12.73
2019-03-20T07:45:29.549Z,12.60
2019-03-20T07:47:58.177Z,12.37
2019-03-20T07:50:26.815Z,12.25
2019-03-20T07:52:55.384Z,13.13
2019-03-20T07:55:23.934Z,11.83
2019-03-20T07:57:52.439Z,11.90
2019-03-20T08:00:20.986Z,12.00
2019-03-20T08:02:49.506Z,12.60
2019-03-20T08:05:28.463Z,11.80
2019-03-20T08:07:48.342Z,11.33
2019-03-20T08:10:18.739Z,11.40
2019-03-20T08:12:47.310Z,11.20
2019-03-20T08:15:17.569Z,9.60
2019-03-20T08:17:46.392Z,8.38
2019-03-20T08:20:21.058Z,10.15
2019-03-20T08:22:49.626Z,9.28
2019-03-20T08:25:18.173Z,9.40
2019-03-20T08:27:46.742Z,8.80
2019-03-20T08:30:16.921Z,8.85
2019-03-20T08:32:45.557Z,9.80
2019-03-20T08:35:14.782Z,10.08
2019-03-20T08:37:43.433Z,9.67
2019-03-20T08:40:18.735Z,8.30
2019-03-20T08:42:47.547Z,7.70
2019-03-20T08:45:19.540Z,7.62
2019-03-20T08:47:48.209Z,7.87
2019-03-20T08:50:21.740Z,7.72
2019-03-20T08:52:50.259Z,7.37
2019-03-20T08:55:19.843Z,7.00
2019-03-20T08:57:48.648Z,7.17
2019-03-20T09:00:24.634Z,7.55
2019-03-20T09:02:53.445Z,7.80
2019-03-20T09:05:22.053Z,6.10
2019-03-20T09:07:50.517Z,6.03
2019-03-20T09:10:20.425Z,6.03
2019-03-20T09:12:49.298Z,5.10
2019-03-20T09:15:19.123Z,4.47
2019-03-20T09:17:47.819Z,4.90
2019-03-20T09:20:21.299Z,4.70
2019-03-20T09:22:49.922Z,4.90
2019-03-20T09:25:23.423Z,5.17
2019-03-20T09:27:52.045Z,4.40
2019-03-20T09:30:23.673Z,4.70
2019-03-20T09:32:52.493Z,4.05
2019-03-20T09:35:21.132Z,4.50
2019-03-20T09:37:52.124Z,4.30
2019-03-20T09:40:24.043Z,4.90
2019-03-20T09:42:52.654Z,5.03
2019-03-20T09:45:22.448Z,4.87
2019-03-20T09:47:50.936Z,4.60
2019-03-20T09:50:24.605Z,4.50
2019-03-20T09:52:53.220Z,3.77
2019-03-20T09:55:21.815Z,3.80
2019-03-20T09:57:50.346Z,3.70
2019-03-20T10:00:24.182Z,3.67
2019-03-20T10:02:52.881Z,3.75
2019-03-20T10:05:22.912Z,4.67
2019-03-20T10:07:51.978Z,4.00
2019-03-20T10:10:30.760Z,4.12
2019-03-20T10:12:59.610Z,4.10
2019-03-20T10:15:31.932Z,3.25
2019-03-20T10:18:00.596Z,2.80
2019-03-20T10:20:29.313Z,3.10
2019-03-20T10:22:57.815Z,3.77
2019-03-20T10:25:26.414Z,3.70
2019-03-20T10:27:54.949Z,4.00
2019-03-20T10:30:24.298Z,3.42
2019-03-20T10:32:53.129Z,3.30
2019-03-20T10:35:21.766Z,3.80
2019-03-20T10:37:50.429Z,3.65
2019-03-20T10:40:28.578Z,3.60
2019-03-20T10:42:57.234Z,3.83
2019-03-20T10:45:25.916Z,3.33
2019-03-20T10:47:54.489Z,3.70
2019-03-20T10:50:26.833Z,3.30
2019-03-20T10:52:55.419Z,3.10
2019-03-20T10:55:24.292Z,2.80
2019-03-20T10:57:52.884Z,2.80
2019-03-20T11:00:28.684Z,3.43
2019-03-20T11:02:57.490Z,3.27
2019-03-20T11:05:26.197Z,3.37
2019-03-20T11:07:54.757Z,2.90
2019-03-20T11:10:24.398Z,3.53
2019-03-20T11:12:53.246Z,3.60
2019-03-20T11:15:22.889Z,3.50
2019-03-20T11:17:52.564Z,3.27
2019-03-20T11:20:22.413Z,3.75
2019-03-20T11:22:51.326Z,3.93
2019-03-20T11:25:21.938Z,4.03
2019-03-20T11:27:50.807Z,4.60
2019-03-20T11:30:24.736Z,4.10
2019-03-20T11:32:53.318Z,4.70
2019-03-20T11:35:22.632Z,4.67
2019-03-20T11:37:51.353Z,4.50
2019-03-20T11:40:33.421Z,4.53
2019-03-20T11:43:02.400Z,4.60
2019-03-20T11:45:31.049Z,4.60
2019-03-20T11:47:59.646Z,4.20
2019-03-20T11:50:39.010Z,4.40
2019-03-20T11:53:08.975Z,4.17
2019-03-20T11:55:38.124Z,4.00
2019-03-20T11:58:07.661Z,3.67
2019-03-20T12:00:36.525Z,3.10
2019-03-20T12:03:05.737Z,3.00
2019-03-20T12:05:34.526Z,3.00
2019-03-20T12:08:03.441Z,3.10
2019-03-20T12:10:33.179Z,3.10
2019-03-20T12:13:01.908Z,3.00
2019-03-20T12:15:30.573Z,2.80
2019-03-20T12:17:59.152Z,3.10
2019-03-20T12:20:27.768Z,3.10
2019-03-20T12:22:56.402Z,3.20
2019-03-20T12:25:29.477Z,2.98
2019-03-20T12:27:58.529Z,2.80
2019-03-20T12:30:32.265Z,2.80
2019-03-20T12:33:00.930Z,2.60
2019-03-20T12:35:54.280Z,2.40
2019-03-20T12:38:22.873Z,2.67
2019-03-20T12:40:51.479Z,2.47
2019-03-20T12:43:20.132Z,2.30
2019-03-20T12:45:48.735Z,2.60
2019-03-20T12:48:18.889Z,2.70
2019-03-20T12:50:47.490Z,3.10
2019-03-20T12:53:30.735Z,3.07
2019-03-20T12:55:59.337Z,3.65
2019-03-20T12:58:27.917Z,3.20
2019-03-20T13:00:56.537Z,2.97
2019-03-20T13:03:25.113Z,2.80
2019-03-20T13:05:53.784Z,2.80
2019-03-20T13:08:22.378Z,3.40
2019-03-20T13:10:51.041Z,3.50
2019-03-20T13:13:20.393Z,2.72
2019-03-20T13:15:49.146Z,2.70
2019-03-20T13:18:17.725Z,2.70
2019-03-20T13:20:46.325Z,2.60
2019-03-20T13:23:23.499Z,2.40
2019-03-20T13:25:52.102Z,2.40
2019-03-20T13:28:20.681Z,2.20
2019-03-20T13:30:55.249Z,3.00
2019-03-20T13:33:26.023Z,3.10
2019-03-20T13:35:54.442Z,3.60
2019-03-20T13:38:23.026Z,3.20
2019-03-20T13:40:51.629Z,3.30
2019-03-20T13:43:20.313Z,3.57
2019-03-20T13:45:48.961Z,3.00
2019-03-20T13:48:17.688Z,2.97
2019-03-20T13:50:46.302Z,2.95
2019-03-20T13:53:15.509Z,2.60
2019-03-20T13:55:44.186Z,2.40
2019-03-20T13:58:12.779Z,2.30
2019-03-20T14:00:41.442Z,2.90
2019-03-20T14:03:10.017Z,3.30
2019-03-20T14:05:38.630Z,3.10
2019-03-20T14:08:07.223Z,3.25
2019-03-20T14:10:49.467Z,2.80
2019-03-20T14:13:06.125Z,2.80
2019-03-20T14:15:34.744Z,2.90
2019-03-20T14:18:03.396Z,3.00
2019-03-20T14:20:33.122Z,3.00
2019-03-20T14:23:01.802Z,2.53
2019-03-20T14:25:30.386Z,2.75
2019-03-20T14:27:58.985Z,2.70
2019-03-20T14:30:29.480Z,3.10
2019-03-20T14:33:03.168Z,2.72
2019-03-20T14:35:31.820Z,2.60
2019-03-20T14:38:00.488Z,2.50
2019-03-20T14:40:36.802Z,2.73
2019-03-20T14:43:00.423Z,3.10
2019-03-20T14:45:29.164Z,2.80
2019-03-20T14:47:57.829Z,2.90
2019-03-20T14:50:33.290Z,3.10
2019-03-20T14:53:01.900Z,3.30
2019-03-20T14:55:30.828Z,3.00
2019-03-20T14:57:59.438Z,3.00
2019-03-20T15:00:31.343Z,2.75
2019-03-20T15:03:00.053Z,2.40
2019-03-20T15:05:28.698Z,2.40
2019-03-20T15:07:57.302Z,2.53
2019-03-20T15:10:27.858Z,2.60
2019-03-20T15:12:57.001Z,3.20
2019-03-20T15:15:56.873Z,2.90
2019-03-20T15:18:25.489Z,3.00
2019-03-20T15:20:54.141Z,2.70
2019-03-20T15:23:22.751Z,3.10
2019-03-20T15:25:51.330Z,2.87
2019-03-20T15:28:19.936Z,3.13
2019-03-20T15:30:48.584Z,2.83
2019-03-20T15:33:17.203Z,2.90
2019-03-20T15:35:45.780Z,2.60
2019-03-20T15:38:14.383Z,2.90
2019-03-20T15:40:42.966Z,2.80
2019-03-20T15:43:11.560Z,2.60
2019-03-20T15:45:40.216Z,2.80
2019-03-20T15:48:08.897Z,2.60
2019-03-20T15:50:37.484Z,2.70
2019-03-20T15:53:06.091Z,2.80
2019-03-20T15:55:36.024Z,2.90
2019-03-20T15:58:05.005Z,2.50
2019-03-20T16:00:33.673Z,2.50
2019-03-20T16:03:05.115Z,2.80
2019-03-20T16:05:33.705Z,2.70
2019-03-20T16:08:02.394Z,2.67
2019-03-20T16:10:30.972Z,2.90
2019-03-20T16:12:59.592Z,2.80
2019-03-20T16:15:28.243Z,3.00
2019-03-20T16:17:56.871Z,2.70
2019-03-20T16:20:25.457Z,3.05
2019-03-20T16:22:54.142Z,3.10
2019-03-20T16:25:24.898Z,3.00
2019-03-20T16:27:53.601Z,3.57
2019-03-20T16:30:26.493Z,3.42
2019-03-20T16:32:56.502Z,3.23
2019-03-20T16:35:25.248Z,3.17
2019-03-20T16:37:54.398Z,3.30
2019-03-20T16:40:33.893Z,3.05
2019-03-20T16:43:02.505Z,3.10
2019-03-20T16:45:32.025Z,3.20
2019-03-20T16:48:00.805Z,3.00
2019-03-20T16:50:29.405Z,2.93
2019-03-20T16:52:58.008Z,2.97
2019-03-20T16:55:26.801Z,2.60
2019-03-20T16:57:55.392Z,2.95
2019-03-20T17:00:26.497Z,3.20
2019-03-20T17:02:55.242Z,3.12
2019-03-20T17:05:24.330Z,3.00
2019-03-20T17:07:52.981Z,2.92
2019-03-20T17:10:24.660Z,3.20
2019-03-20T17:12:53.236Z,2.80
2019-03-20T17:15:23.796Z,3.20
2019-03-20T17:17:52.454Z,3.40
2019-03-20T17:20:21.224Z,3.20
2019-03-20T17:22:49.835Z,3.33
2019-03-20T17:25:18.442Z,3.10
2019-03-20T17:27:47.295Z,2.90
2019-03-20T17:30:21.061Z,3.60
2019-03-20T17:32:49.726Z,3.02
2019-03-20T17:35:18.392Z,3.57
2019-03-20T17:37:46.973Z,3.35
2019-03-20T17:40:18.389Z,3.20
2019-03-20T17:42:47.073Z,3.22
2019-03-20T17:45:18.125Z,3.40
2019-03-20T17:47:46.850Z,3.50
2019-03-20T17:50:18.202Z,3.37
2019-03-20T17:52:46.864Z,3.20
2019-03-20T17:55:15.469Z,3.37
2019-03-20T17:57:44.050Z,3.33
2019-03-20T18:00:22.741Z,3.07
2019-03-20T18:02:51.338Z,3.00
2019-03-20T18:05:20.112Z,3.10
2019-03-20T18:07:48.696Z,3.20
2019-03-20T18:10:17.311Z,3.20
2019-03-20T18:12:45.878Z,3.37
2019-03-20T18:15:16.229Z,3.60
2019-03-20T18:17:44.816Z,3.50
2019-03-20T18:20:16.775Z,4.10
2019-03-20T18:22:45.394Z,4.43
2019-03-20T18:25:14.547Z,6.92
2019-03-20T18:27:43.140Z,7.63
2019-03-20T18:30:19.820Z,8.70
2019-03-20T18:32:48.464Z,7.25
2019-03-20T18:35:17.651Z,6.00
2019-03-20T18:37:46.409Z,5.57
2019-03-20T18:40:19.928Z,4.10
2019-03-20T18:42:48.589Z,4.10
2019-03-20T18:45:21.365Z,4.35
2019-03-20T18:47:50.085Z,3.80
2019-03-20T18:50:19.978Z,3.80
2019-03-20T18:52:48.974Z,4.00
2019-03-20T18:55:18.874Z,4.23
2019-03-20T18:57:47.653Z,4.12
2019-03-20T19:00:30.666Z,3.67
2019-03-20T19:03:05.178Z,3.70
2019-03-20T19:05:42.394Z,3.50
2019-03-20T19:08:11.043Z,3.58
2019-03-20T19:10:39.760Z,3.67
2019-03-20T19:13:08.365Z,4.00
2019-03-20T19:15:36.907Z,4.50
2019-03-20T19:18:05.453Z,3.55
2019-03-20T19:20:33.940Z,3.20
2019-03-20T19:23:02.491Z,3.67
2019-03-20T19:25:31.082Z,3.87
2019-03-20T19:27:59.613Z,3.70
2019-03-20T19:30:28.177Z,3.60
2019-03-20T19:32:56.721Z,3.70
2019-03-20T19:35:25.374Z,3.72
2019-03-20T19:37:53.940Z,4.00
2019-03-20T19:40:23.058Z,3.60
2019-03-20T19:42:51.632Z,3.43
2019-03-20T19:45:20.571Z,3.65
2019-03-20T19:47:49.129Z,3.50
2019-03-20T19:50:18.944Z,3.83
2019-03-20T19:52:47.555Z,3.70
2019-03-20T19:55:17.927Z,3.67
2019-03-20T19:57:46.529Z,3.80
2019-03-20T20:00:16.765Z,4.30
2019-03-20T20:02:45.430Z,3.70
2019-03-20T20:05:15.898Z,3.65
2019-03-20T20:07:44.879Z,3.23
2019-03-20T20:10:15.546Z,3.80
2019-03-20T20:12:44.233Z,3.80
2019-03-20T20:15:23.778Z,4.20
2019-03-20T20:17:52.393Z,3.60
2019-03-20T20:20:31.616Z,3.37
2019-03-20T20:23:00.076Z,3.70
2019-03-20T20:25:28.649Z,3.60
2019-03-20T20:27:57.121Z,3.67
2019-03-20T20:30:25.673Z,4.00
2019-03-20T20:32:54.245Z,4.15
2019-03-20T20:35:22.803Z,3.40
2019-03-20T20:37:51.436Z,4.20
2019-03-20T20:40:28.329Z,4.20
2019-03-20T20:42:56.886Z,4.00
2019-03-20T20:45:25.428Z,4.00
2019-03-20T20:47:53.981Z,4.00
2019-03-20T20:50:22.477Z,3.90
2019-03-20T20:52:50.975Z,4.20
2019-03-20T20:55:23.242Z,4.20
2019-03-20T20:57:51.878Z,4.63
2019-03-20T21:00:23.885Z,6.90
2019-03-20T21:02:52.710Z,5.07
2019-03-20T21:05:21.256Z,6.80
2019-03-20T21:07:49.955Z,7.07
2019-03-20T21:10:25.767Z,8.10
2019-03-20T21:12:57.177Z,7.80
2019-03-20T21:15:35.876Z,9.25
2019-03-20T21:18:16.399Z,9.10
2019-03-20T21:20:45.580Z,8.10
2019-03-20T21:23:33.644Z,6.35
2019-03-20T21:26:02.781Z,6.55
2019-03-20T21:29:07.585Z,7.47
2019-03-20T21:31:38.695Z,6.75
2019-03-20T21:34:37.560Z,6.00
2019-03-20T21:37:17.896Z,6.67
2019-03-20T21:39:46.454Z,6.30
2019-03-20T21:42:21.164Z,6.47
2019-03-20T21:45:08.843Z,6.90
2019-03-20T21:47:36.894Z,6.50
2019-03-20T21:50:31.208Z,6.30
2019-03-20T21:52:59.753Z,6.33
2019-03-20T21:56:04.782Z,7.20
2019-03-20T21:58:35.901Z,7.67
2019-03-20T22:01:19.569Z,7.10
2019-03-20T22:03:48.137Z,7.00
2019-03-20T22:06:34.635Z,7.00
2019-03-20T22:09:05.180Z,6.30
2019-03-20T22:11:36.812Z,6.97
2019-03-20T22:14:11.842Z,6.30
2019-03-20T22:17:03.185Z,6.50
2019-03-20T22:19:34.818Z,6.55
2019-03-20T22:22:20.848Z,7.10
2019-03-20T22:25:16.997Z,7.07
2019-03-20T22:27:54.396Z,7.50
2019-03-20T22:30:23.015Z,8.10
2019-03-20T22:33:20.116Z,8.73
2019-03-20T22:35:49.327Z,8.37
2019-03-20T22:38:20.981Z,9.90
2019-03-20T22:41:26.478Z,10.28
2019-03-20T22:43:58.453Z,9.57
2019-03-20T22:47:14.999Z,9.73
2019-03-20T22:50:09.837Z,9.08
2019-03-20T22:52:58.429Z,8.73
2019-03-20T22:55:50.391Z,8.90
2019-03-20T22:58:45.601Z,9.70
2019-03-20T23:01:31.858Z,9.20
2019-03-20T23:04:12.754Z,8.68
2019-03-20T23:06:41.279Z,8.25
2019-03-20T23:09:10.430Z,7.80
2019-03-20T23:11:39.137Z,8.40
2019-03-20T23:14:07.708Z,8.33
2019-03-20T23:16:36.255Z,9.88
2019-03-20T23:19:04.892Z,10.18
2019-03-20T23:21:33.373Z,10.37
2019-03-20T23:24:01.932Z,10.77
2019-03-20T23:26:30.632Z,9.80
2019-03-20T23:28:59.194Z,9.85
2019-03-20T23:31:27.694Z,11.12
2019-03-20T23:33:56.314Z,12.58
2019-03-20T23:36:25.301Z,14.67
2019-03-20T23:38:53.797Z,12.23
2019-03-20T23:41:22.342Z,12.13
2019-03-20T23:43:53.123Z,12.17
2019-03-20T23:46:21.106Z,11.10
2019-03-20T23:49:04.277Z,10.07
2019-03-20T23:51:34.963Z,10.90
2019-03-20T23:54:03.798Z,23.63
2019-03-20T23:56:36.782Z,12.70
2019-03-20T23:59:06.184Z,13.20
